createdAt,value
2023-01-15T00:01:22.800Z,5.89
2023-01-15T00:03:53.389Z,4.78
2023-01-15T00:06:21.820Z,5.20
2023-01-15T00:08:54.910Z,5.40
2023-01-15T00:11:23.416Z,5.85
2023-01-15T00:13:54.758Z,5.09
2023-01-15T00:16:24.863Z,5.60
2023-01-15T00:18:53.915Z,5.37
2023-01-15T00:21:21.493Z,6.07
2023-01-15T00:24:07.607Z,6.22
2023-01-15T00:26:53.639Z,5.70
2023-01-15T00:29:22.179Z,5.46
2023-01-15T00:32:04.606Z,5.87
2023-01-15T00:34:32.913Z,6.05
2023-01-15T00:37:08.173Z,5.52
2023-01-15T00:39:35.964Z,5.63
2023-01-15T00:42:02.989Z,5.94
2023-01-15T00:44:29.723Z,6.38
2023-01-15T00:47:00.006Z,5.73
2023-01-15T00:49:56.909Z,5.91
2023-01-15T00:52:23.878Z,5.96
2023-01-15T00:54:53.190Z,5.94
2023-01-15T00:57:21.466Z,5.77
2023-01-15T00:59:48.869Z,5.54
2023-01-15T01:02:16.008Z,6.34
2023-01-15T01:04:45.770Z,5.78
2023-01-15T01:07:13.815Z,6.02
2023-01-15T01:09:40.535Z,5.74
2023-01-15T01:12:07.304Z,5.87
2023-01-15T01:14:34.046Z,5.95
2023-01-15T01:17:00.795Z,6.07
2023-01-15T01:19:27.495Z,5.97
2023-01-15T01:21:54.536Z,6.05
2023-01-15T01:24:23.710Z,6.15
2023-01-15T01:26:53.457Z,5.79
2023-01-15T01:29:22.652Z,5.85
2023-01-15T01:31:51.400Z,5.76
2023-01-15T01:34:18.154Z,6.07
2023-01-15T01:36:45.408Z,6.21
2023-01-15T01:39:17.648Z,6.11
2023-01-15T01:41:45.142Z,6.13
2023-01-15T01:44:33.489Z,6.24
2023-01-15T01:47:03.119Z,6.10
2023-01-15T01:49:31.129Z,6.17
2023-01-15T01:52:11.359Z,6.16
2023-01-15T01:54:39.136Z,6.20
2023-01-15T01:57:07.389Z,6.18
2023-01-15T01:59:34.537Z,6.15
2023-01-15T02:02:01.484Z,5.93
2023-01-15T02:04:29.984Z,6.10
2023-01-15T02:06:59.037Z,5.91
2023-01-15T02:09:25.694Z,5.86
2023-01-15T02:11:57.644Z,5.95
2023-01-15T02:14:39.257Z,5.82
2023-01-15T02:17:22.413Z,5.81
2023-01-15T02:20:06.249Z,6.00
2023-01-15T02:23:17.762Z,5.92
2023-01-15T02:26:12.052Z,5.86
2023-01-15T02:28:42.575Z,5.62
2023-01-15T02:31:25.477Z,5.90
2023-01-15T02:34:01.410Z,5.77
2023-01-15T02:36:30.778Z,5.84
2023-01-15T02:39:00.174Z,5.66
2023-01-15T02:41:33.374Z,5.88
2023-01-15T02:44:03.699Z,5.67
2023-01-15T02:46:34.822Z,5.78
2023-01-15T02:49:04.964Z,5.46
2023-01-15T02:51:39.623Z,5.54
2023-01-15T02:54:12.063Z,5.79
2023-01-15T02:56:41.156Z,5.42
2023-01-15T02:59:13.283Z,5.68
2023-01-15T03:01:51.793Z,5.54
2023-01-15T03:04:43.746Z,5.73
2023-01-15T03:07:19.472Z,5.42
2023-01-15T03:09:48.542Z,5.41
2023-01-15T03:12:30.526Z,5.67
2023-01-15T03:15:03.437Z,5.66
2023-01-15T03:17:40.074Z,5.50
2023-01-15T03:20:10.192Z,5.72
2023-01-15T03:22:41.189Z,5.60
2023-01-15T03:25:16.636Z,5.60
2023-01-15T03:27:43.478Z,5.60
2023-01-15T03:30:16.191Z,5.54
2023-01-15T03:32:43.285Z,5.40
2023-01-15T03:35:50.155Z,5.64
2023-01-15T03:38:21.641Z,5.21
2023-01-15T03:41:08.393Z,5.59
2023-01-15T03:43:56.805Z,5.37
2023-01-15T03:46:29.025Z,5.60
2023-01-15T03:49:36.248Z,5.64
2023-01-15T03:52:11.140Z,5.69
2023-01-15T03:54:52.819Z,5.71
2023-01-15T03:57:38.027Z,5.68
2023-01-15T04:00:13.938Z,5.64
2023-01-15T04:02:41.583Z,5.66
2023-01-15T04:05:08.437Z,5.50
2023-01-15T04:07:34.965Z,5.63
2023-01-15T04:10:01.749Z,5.73
2023-01-15T04:12:28.974Z,5.77
2023-01-15T04:14:55.545Z,5.79
2023-01-15T04:17:22.137Z,5.70
2023-01-15T04:19:48.785Z,5.66
2023-01-15T04:22:15.302Z,5.72
2023-01-15T04:24:42.063Z,5.67
2023-01-15T04:27:08.713Z,5.66
2023-01-15T04:29:35.268Z,5.63
2023-01-15T04:32:01.971Z,5.61
2023-01-15T04:34:29.239Z,5.54
2023-01-15T04:36:56.293Z,5.55
2023-01-15T04:39:23.293Z,5.52
2023-01-15T04:42:08.434Z,5.68
2023-01-15T04:44:35.276Z,5.69
2023-01-15T04:47:01.878Z,5.73
2023-01-15T04:49:28.564Z,5.71
2023-01-15T04:51:55.192Z,5.64
2023-01-15T04:54:22.738Z,5.57
2023-01-15T04:56:51.090Z,5.64
2023-01-15T04:59:19.345Z,5.66
2023-01-15T05:02:01.857Z,5.61
2023-01-15T05:04:29.528Z,5.51
2023-01-15T05:06:56.504Z,5.52
2023-01-15T05:09:23.164Z,5.56
2023-01-15T05:11:49.824Z,5.55
2023-01-15T05:14:16.355Z,5.49
2023-01-15T05:16:42.955Z,5.56
2023-01-15T05:19:10.564Z,5.48
2023-01-15T05:21:39.710Z,5.51
2023-01-15T05:24:08.819Z,5.56
2023-01-15T05:26:35.982Z,5.49
2023-01-15T05:29:03.375Z,5.54
2023-01-15T05:31:30.423Z,5.61
2023-01-15T05:33:57.200Z,5.62
2023-01-15T05:36:25.369Z,5.64
2023-01-15T05:38:54.305Z,5.69
2023-01-15T05:41:40.771Z,5.66
2023-01-15T05:44:09.640Z,5.68
2023-01-15T05:46:36.819Z,5.67
2023-01-15T05:49:05.506Z,5.69
2023-01-15T05:51:32.057Z,5.71
2023-01-15T05:53:58.709Z,5.68
2023-01-15T05:56:25.370Z,5.65
2023-01-15T05:58:52.455Z,5.62
2023-01-15T06:01:19.154Z,5.65
2023-01-15T06:03:46.681Z,5.62
2023-01-15T06:06:13.923Z,5.64
2023-01-15T06:08:40.480Z,5.66
2023-01-15T06:11:07.384Z,5.71
2023-01-15T06:13:34.529Z,5.63
2023-01-15T06:16:01.606Z,5.69
2023-01-15T06:18:28.199Z,5.69
2023-01-15T06:20:54.752Z,5.71
2023-01-15T06:23:21.795Z,5.70
2023-01-15T06:25:48.318Z,5.72
2023-01-15T06:28:14.872Z,5.70
2023-01-15T06:30:41.567Z,5.71
2023-01-15T06:33:08.092Z,5.66
2023-01-15T06:35:35.367Z,5.77
2023-01-15T06:38:02.123Z,5.75
2023-01-15T06:40:29.288Z,5.67
2023-01-15T06:43:17.209Z,5.75
2023-01-15T06:46:02.897Z,5.81
2023-01-15T06:48:29.531Z,5.86
2023-01-15T06:50:56.248Z,5.84
2023-01-15T06:53:23.077Z,5.80
2023-01-15T06:55:49.783Z,5.82
2023-01-15T06:58:16.370Z,5.84
2023-01-15T07:00:44.216Z,5.83
2023-01-15T07:03:14.415Z,5.78
2023-01-15T07:05:41.253Z,5.85
2023-01-15T07:08:07.810Z,5.88
2023-01-15T07:10:35.592Z,5.81
2023-01-15T07:13:02.623Z,5.82
2023-01-15T07:15:29.341Z,5.73
2023-01-15T07:17:57.387Z,5.72
2023-01-15T07:20:28.388Z,5.79
2023-01-15T07:22:55.211Z,5.79
2023-01-15T07:25:22.152Z,5.74
2023-01-15T07:27:48.702Z,5.70
2023-01-15T07:30:16.397Z,5.63
2023-01-15T07:32:45.072Z,5.66
2023-01-15T07:35:11.573Z,5.68
2023-01-15T07:37:39.679Z,5.66
2023-01-15T07:40:06.459Z,5.70
2023-01-15T07:42:51.641Z,5.60
2023-01-15T07:45:37.019Z,5.57
2023-01-15T07:48:21.911Z,5.53
2023-01-15T07:50:48.632Z,5.53
2023-01-15T07:53:15.548Z,5.50
2023-01-15T07:55:42.071Z,5.48
2023-01-15T07:58:08.846Z,5.46
2023-01-15T08:00:35.440Z,5.50
2023-01-15T08:03:03.675Z,5.41
2023-01-15T08:05:30.270Z,5.43
2023-01-15T08:07:56.819Z,5.51
2023-01-15T08:10:25.369Z,5.54
2023-01-15T08:13:10.653Z,5.43
2023-01-15T08:15:42.950Z,5.45
2023-01-15T08:18:09.685Z,5.42
2023-01-15T08:20:37.806Z,5.46
2023-01-15T08:23:04.566Z,5.48
2023-01-15T08:25:33.746Z,5.51
2023-01-15T08:28:02.524Z,5.43
2023-01-15T08:30:29.186Z,5.41
2023-01-15T08:32:59.636Z,5.43
2023-01-15T08:35:26.499Z,5.52
2023-01-15T08:37:53.077Z,5.52
2023-01-15T08:40:19.662Z,5.50
2023-01-15T08:42:46.632Z,5.54
2023-01-15T08:45:13.452Z,5.58
2023-01-15T08:47:43.145Z,5.60
2023-01-15T08:50:10.436Z,5.57
2023-01-15T08:52:38.517Z,5.48
2023-01-15T08:55:05.721Z,5.51
2023-01-15T08:57:32.562Z,5.61
2023-01-15T09:00:01.019Z,5.58
2023-01-15T09:02:30.041Z,5.59
2023-01-15T09:04:57.028Z,5.52
2023-01-15T09:07:23.973Z,5.60
2023-01-15T09:09:50.729Z,5.68
2023-01-15T09:12:17.434Z,5.36
2023-01-15T09:14:58.153Z,5.81
2023-01-15T09:17:28.994Z,5.92
2023-01-15T09:19:55.586Z,5.96
2023-01-15T09:22:22.257Z,6.00
2023-01-15T09:24:48.930Z,6.02
2023-01-15T09:27:16.130Z,6.08
2023-01-15T09:29:42.620Z,6.12
2023-01-15T09:32:10.647Z,6.19
2023-01-15T09:34:37.276Z,6.24
2023-01-15T09:37:03.975Z,6.20
2023-01-15T09:39:30.646Z,6.12
2023-01-15T09:42:09.404Z,6.05
2023-01-15T09:44:54.766Z,6.16
2023-01-15T09:47:26.201Z,6.22
2023-01-15T09:49:52.749Z,6.25
2023-01-15T09:52:57.831Z,6.37
2023-01-15T09:55:31.957Z,6.59
2023-01-15T09:58:01.002Z,6.57
2023-01-15T10:00:33.342Z,6.59
2023-01-15T10:03:04.611Z,6.69
2023-01-15T10:05:55.262Z,6.79
2023-01-15T10:08:32.206Z,6.81
2023-01-15T10:11:02.756Z,6.73
2023-01-15T10:13:39.213Z,7.20
2023-01-15T10:16:06.324Z,7.30
2023-01-15T10:18:32.906Z,7.56
2023-01-15T10:21:18.272Z,7.82
2023-01-15T10:23:50.601Z,7.19
2023-01-15T10:26:35.921Z,7.69
2023-01-15T10:29:17.755Z,7.49
2023-01-15T10:31:54.393Z,7.15
2023-01-15T10:34:29.592Z,7.32
2023-01-15T10:37:05.492Z,7.13
2023-01-15T10:39:32.585Z,7.29
2023-01-15T10:42:02.046Z,7.74
2023-01-15T10:44:34.381Z,7.90
2023-01-15T10:47:02.914Z,7.41
2023-01-15T10:49:33.643Z,7.12
2023-01-15T10:52:06.618Z,7.08
2023-01-15T10:54:45.293Z,7.23
2023-01-15T10:57:15.944Z,7.44
2023-01-15T10:59:47.784Z,7.18
2023-01-15T11:02:24.253Z,7.03
2023-01-15T11:04:51.092Z,6.98
2023-01-15T11:07:18.224Z,7.32
2023-01-15T11:09:44.860Z,7.24
2023-01-15T11:12:26.794Z,7.43
2023-01-15T11:15:11.781Z,7.51
2023-01-15T11:18:05.690Z,9.55
2023-01-15T11:20:37.383Z,9.46
2023-01-15T11:23:08.624Z,9.18
2023-01-15T11:25:35.498Z,9.02
2023-01-15T11:28:08.898Z,9.39
2023-01-15T11:30:38.548Z,8.52
2023-01-15T11:33:06.750Z,8.33
2023-01-15T11:35:34.240Z,8.16
2023-01-15T11:38:08.644Z,8.07
2023-01-15T11:40:35.206Z,7.94
2023-01-15T11:43:20.778Z,7.79
2023-01-15T11:46:06.798Z,7.61
2023-01-15T11:49:05.375Z,7.67
2023-01-15T11:51:35.731Z,7.57
2023-01-15T11:54:04.284Z,7.40
2023-01-15T11:56:35.321Z,7.34
2023-01-15T11:59:03.659Z,7.23
2023-01-15T12:01:31.833Z,7.20
2023-01-15T12:03:59.090Z,7.23
2023-01-15T12:06:52.848Z,7.19
2023-01-15T12:09:25.704Z,7.18
2023-01-15T12:12:01.373Z,7.20
2023-01-15T12:14:46.868Z,7.25
2023-01-15T12:17:21.095Z,7.14
2023-01-15T12:20:11.175Z,7.02
2023-01-15T12:22:37.903Z,8.10
2023-01-15T12:25:23.569Z,8.34
2023-01-15T12:28:04.494Z,8.60
2023-01-15T12:30:36.553Z,7.90
2023-01-15T12:33:21.678Z,7.54
2023-01-15T12:35:58.763Z,7.72
2023-01-15T12:38:38.453Z,8.18
2023-01-15T12:41:10.763Z,7.83
2023-01-15T12:43:55.843Z,7.53
2023-01-15T12:46:29.412Z,7.27
2023-01-15T12:49:03.518Z,6.86
2023-01-15T12:51:34.090Z,6.73
2023-01-15T12:54:14.504Z,6.93
2023-01-15T12:57:01.815Z,7.07
2023-01-15T12:59:49.810Z,7.20
2023-01-15T13:02:33.820Z,7.17
2023-01-15T13:05:19.420Z,7.04
2023-01-15T13:07:52.553Z,7.06
2023-01-15T13:10:43.784Z,7.09
2023-01-15T13:13:34.577Z,7.11
2023-01-15T13:16:10.601Z,7.22
2023-01-15T13:18:40.292Z,7.29
2023-01-15T13:21:17.544Z,7.34
2023-01-15T13:23:53.198Z,7.36
2023-01-15T13:26:19.790Z,7.44
2023-01-15T13:29:18.593Z,7.39
2023-01-15T13:31:51.210Z,7.35
2023-01-15T13:34:27.534Z,7.26
2023-01-15T13:36:56.842Z,7.24
2023-01-15T13:39:25.151Z,7.20
2023-01-15T13:42:13.790Z,7.14
2023-01-15T13:44:46.941Z,7.13
2023-01-15T13:47:17.749Z,7.14
2023-01-15T13:49:53.146Z,6.92
2023-01-15T13:52:31.540Z,6.73
2023-01-15T13:55:20.628Z,6.64
2023-01-15T13:57:49.132Z,6.64
2023-01-15T14:00:36.709Z,6.66
2023-01-15T14:03:23.311Z,6.61
2023-01-15T14:06:00.384Z,6.56
2023-01-15T14:08:28.562Z,6.16
2023-01-15T14:10:55.620Z,5.86
2023-01-15T14:13:25.003Z,5.77
2023-01-15T14:16:10.433Z,5.66
2023-01-15T14:18:40.129Z,5.68
2023-01-15T14:21:19.308Z,5.78
2023-01-15T14:23:53.435Z,5.75
2023-01-15T14:26:26.142Z,5.77
2023-01-15T14:29:13.203Z,5.87
2023-01-15T14:31:45.284Z,6.00
2023-01-15T14:34:14.685Z,6.07
2023-01-15T14:36:47.528Z,6.09
2023-01-15T14:39:24.674Z,6.09
2023-01-15T14:42:32.259Z,6.05
2023-01-15T14:45:06.074Z,5.99
2023-01-15T14:47:35.215Z,5.96
2023-01-15T14:50:26.726Z,6.00
2023-01-15T14:52:55.273Z,6.02
2023-01-15T14:55:23.769Z,6.19
2023-01-15T14:58:04.942Z,6.31
2023-01-15T15:00:35.330Z,6.37
2023-01-15T15:03:04.739Z,6.37
2023-01-15T15:05:57.790Z,6.32
2023-01-15T15:08:29.760Z,6.36
2023-01-15T15:10:57.991Z,6.24
2023-01-15T15:13:36.386Z,6.02
2023-01-15T15:16:08.380Z,5.80
2023-01-15T15:18:39.499Z,5.70
2023-01-15T15:21:26.323Z,5.64
2023-01-15T15:23:58.948Z,5.59
2023-01-15T15:26:27.530Z,5.38
2023-01-15T15:29:54.688Z,5.21
2023-01-15T15:32:23.026Z,5.12
2023-01-15T15:34:53.637Z,5.15
2023-01-15T15:37:22.178Z,5.01
2023-01-15T15:39:48.743Z,4.84
2023-01-15T15:42:41.694Z,4.86
2023-01-15T15:45:35.893Z,4.91
2023-01-15T15:48:29.772Z,5.02
2023-01-15T15:50:56.374Z,4.94
2023-01-15T15:53:22.932Z,5.01
2023-01-15T15:55:49.748Z,5.07
2023-01-15T15:58:22.562Z,5.14
2023-01-15T16:00:49.503Z,5.17
2023-01-15T16:03:21.020Z,5.12
2023-01-15T16:06:06.788Z,5.06
2023-01-15T16:08:34.471Z,4.89
2023-01-15T16:11:03.078Z,4.74
2023-01-15T16:13:38.790Z,4.62
2023-01-15T16:16:08.295Z,4.55
2023-01-15T16:18:41.086Z,4.55
2023-01-15T16:21:11.878Z,4.41
2023-01-15T16:23:38.451Z,4.35
2023-01-15T16:26:14.515Z,4.34
2023-01-15T16:28:43.676Z,4.33
2023-01-15T16:31:11.127Z,4.28
2023-01-15T16:33:38.733Z,4.30
2023-01-15T16:36:08.602Z,4.44
2023-01-15T16:38:37.412Z,4.51
2023-01-15T16:41:04.351Z,4.57
2023-01-15T16:43:31.552Z,4.66
2023-01-15T16:46:16.215Z,4.64
2023-01-15T16:48:47.190Z,4.50
2023-01-15T16:51:32.399Z,4.64
2023-01-15T16:54:03.629Z,4.57
2023-01-15T16:56:37.484Z,4.52
2023-01-15T16:59:24.289Z,4.50
2023-01-15T17:01:52.711Z,4.37
2023-01-15T17:04:25.582Z,4.38
2023-01-15T17:06:56.277Z,4.39
2023-01-15T17:09:22.956Z,4.35
2023-01-15T17:11:50.878Z,4.32
2023-01-15T17:14:25.110Z,4.33
2023-01-15T17:17:10.091Z,4.28
2023-01-15T17:19:36.704Z,4.26
2023-01-15T17:22:03.286Z,4.36
2023-01-15T17:24:29.846Z,4.42
2023-01-15T17:26:57.910Z,4.37
2023-01-15T17:29:24.615Z,4.40
2023-01-15T17:31:51.223Z,4.46
2023-01-15T17:34:23.578Z,4.42
2023-01-15T17:36:51.830Z,4.37
2023-01-15T17:39:22.177Z,4.38
2023-01-15T17:41:49.038Z,4.34
2023-01-15T17:44:15.883Z,4.38
2023-01-15T17:46:42.716Z,4.41
2023-01-15T17:49:09.393Z,4.43
2023-01-15T17:51:36.071Z,4.49
2023-01-15T17:54:02.584Z,4.51
2023-01-15T17:56:47.970Z,4.52
2023-01-15T17:59:33.335Z,4.52
2023-01-15T18:02:18.520Z,4.69
2023-01-15T18:05:06.185Z,4.76
2023-01-15T18:07:39.506Z,4.78
2023-01-15T18:10:06.783Z,4.88
2023-01-15T18:12:33.292Z,4.85
2023-01-15T18:15:00.639Z,4.80
2023-01-15T18:17:27.280Z,4.86
2023-01-15T18:19:55.742Z,4.90
2023-01-15T18:22:22.539Z,4.90
2023-01-15T18:24:49.046Z,4.91
2023-01-15T18:27:15.591Z,4.83
2023-01-15T18:29:42.489Z,4.87
2023-01-15T18:32:09.622Z,4.87
2023-01-15T18:34:38.988Z,4.90
2023-01-15T18:37:13.501Z,4.82
2023-01-15T18:39:40.167Z,4.89
2023-01-15T18:42:09.545Z,4.96
2023-01-15T18:44:55.557Z,5.00
2023-01-15T18:47:24.936Z,5.01
2023-01-15T18:49:53.786Z,4.95
2023-01-15T18:52:39.845Z,5.01
2023-01-15T18:55:20.219Z,5.08
2023-01-15T18:57:50.283Z,5.14
2023-01-15T19:00:18.275Z,5.06
2023-01-15T19:02:46.069Z,4.97
2023-01-15T19:05:15.264Z,5.02
2023-01-15T19:07:44.976Z,5.05
2023-01-15T19:10:12.479Z,5.03
2023-01-15T19:12:39.264Z,5.06
2023-01-15T19:15:25.323Z,5.06
2023-01-15T19:18:10.738Z,5.08
2023-01-15T19:20:37.838Z,5.17
2023-01-15T19:23:06.033Z,5.23
2023-01-15T19:25:43.718Z,5.22
2023-01-15T19:28:11.768Z,5.26
2023-01-15T19:30:39.817Z,5.19
2023-01-15T19:33:07.664Z,5.14
2023-01-15T19:35:36.930Z,5.13
2023-01-15T19:38:08.685Z,5.21
2023-01-15T19:40:38.178Z,5.18
2023-01-15T19:43:24.008Z,5.22
2023-01-15T19:46:09.156Z,5.19
2023-01-15T19:48:54.230Z,5.22
2023-01-15T19:51:21.417Z,5.23
2023-01-15T19:53:48.215Z,5.17
2023-01-15T19:56:14.871Z,5.05
2023-01-15T19:58:41.465Z,4.80
2023-01-15T20:01:15.870Z,4.98
2023-01-15T20:03:42.695Z,5.00
2023-01-15T20:06:09.269Z,4.98
2023-01-15T20:08:35.814Z,4.99
2023-01-15T20:11:02.508Z,4.94
2023-01-15T20:13:47.617Z,4.83
2023-01-15T20:16:15.655Z,4.92
2023-01-15T20:18:42.270Z,4.93
2023-01-15T20:21:09.882Z,4.92
2023-01-15T20:23:36.879Z,4.91
2023-01-15T20:26:10.863Z,4.96
2023-01-15T20:28:37.908Z,4.90
2023-01-15T20:31:06.803Z,5.01
2023-01-15T20:33:33.780Z,5.16
2023-01-15T20:36:04.218Z,5.17
2023-01-15T20:38:31.327Z,5.17
2023-01-15T20:41:17.908Z,5.18
2023-01-15T20:44:03.012Z,5.19
2023-01-15T20:46:29.585Z,5.21
2023-01-15T20:49:14.905Z,5.26
2023-01-15T20:51:41.907Z,5.26
2023-01-15T20:54:08.506Z,5.23
2023-01-15T20:56:35.455Z,5.20
2023-01-15T20:59:02.267Z,5.28
2023-01-15T21:01:29.658Z,5.29
2023-01-15T21:03:56.286Z,5.28
2023-01-15T21:06:23.052Z,5.38
2023-01-15T21:08:49.763Z,5.39
2023-01-15T21:11:16.677Z,5.43
2023-01-15T21:13:45.250Z,5.38
2023-01-15T21:16:12.557Z,5.36
2023-01-15T21:18:43.228Z,5.36
2023-01-15T21:21:11.000Z,5.24
2023-01-15T21:23:37.590Z,5.12
2023-01-15T21:26:04.168Z,5.04
2023-01-15T21:28:30.867Z,5.01
2023-01-15T21:30:57.710Z,4.94
2023-01-15T21:33:24.253Z,4.94
2023-01-15T21:35:50.911Z,4.89
2023-01-15T21:38:17.469Z,4.94
2023-01-15T21:40:44.110Z,4.89
2023-01-15T21:43:29.606Z,4.87
2023-01-15T21:46:05.602Z,4.91
2023-01-15T21:48:32.725Z,4.95
2023-01-15T21:50:59.354Z,5.05
2023-01-15T21:53:25.955Z,5.10
2023-01-15T21:55:52.726Z,5.07
2023-01-15T21:58:19.813Z,5.05
2023-01-15T22:00:46.345Z,5.03
2023-01-15T22:03:17.389Z,5.05
2023-01-15T22:05:44.625Z,5.01
2023-01-15T22:08:11.265Z,4.98
2023-01-15T22:10:38.027Z,4.95
2023-01-15T22:13:04.548Z,4.93
2023-01-15T22:15:31.098Z,4.92
2023-01-15T22:17:59.057Z,4.92
2023-01-15T22:20:25.642Z,4.95
2023-01-15T22:22:52.325Z,4.92
2023-01-15T22:25:18.875Z,4.94
2023-01-15T22:27:45.447Z,4.93
2023-01-15T22:30:13.356Z,4.88
2023-01-15T22:32:39.912Z,4.89
2023-01-15T22:35:08.475Z,4.99
2023-01-15T22:37:35.119Z,4.94
2023-01-15T22:40:07.473Z,4.87
2023-01-15T22:42:34.153Z,4.80
2023-01-15T22:45:01.176Z,4.85
2023-01-15T22:47:28.729Z,4.94
2023-01-15T22:49:55.395Z,4.93
2023-01-15T22:52:25.484Z,4.95
2023-01-15T22:54:52.289Z,4.97
2023-01-15T22:57:19.349Z,4.99
2023-01-15T22:59:46.593Z,5.01
2023-01-15T23:02:13.609Z,4.99
2023-01-15T23:04:40.314Z,5.06
2023-01-15T23:07:07.486Z,5.20
2023-01-15T23:09:34.424Z,5.19
2023-01-15T23:12:01.684Z,5.21
2023-01-15T23:14:28.522Z,5.18
2023-01-15T23:16:55.469Z,5.17
2023-01-15T23:19:22.171Z,5.30
2023-01-15T23:21:48.765Z,5.32
2023-01-15T23:24:15.352Z,5.29
2023-01-15T23:26:42.321Z,5.21
2023-01-15T23:29:08.951Z,5.19
2023-01-15T23:31:35.919Z,5.15
2023-01-15T23:34:02.539Z,5.16
2023-01-15T23:36:29.429Z,5.19
2023-01-15T23:38:58.777Z,5.15
2023-01-15T23:41:47.197Z,5.10
2023-01-15T23:44:33.855Z,5.04
2023-01-15T23:47:00.586Z,5.02
2023-01-15T23:49:27.640Z,4.96
2023-01-15T23:51:54.270Z,4.95
2023-01-15T23:54:20.949Z,4.95
2023-01-15T23:56:48.976Z,4.94
2023-01-15T23:59:15.605Z,4.91
